sensor_id;sensor_type;location;lat;lon;timestamp;temperature;humidity
67820;DHT22;54618;52.018;5.576;2023-07-28T00:02:10;18.40;84.80
67820;DHT22;54618;52.018;5.576;2023-07-28T00:04:36;18.40;84.70
67820;DHT22;54618;52.018;5.576;2023-07-28T00:07:03;18.40;84.60
67820;DHT22;54618;52.018;5.576;2023-07-28T00:09:29;18.40;84.70
67820;DHT22;54618;52.018;5.576;2023-07-28T00:11:59;18.40;85.10
67820;DHT22;54618;52.018;5.576;2023-07-28T00:14:25;18.40;85.00
67820;DHT22;54618;52.018;5.576;2023-07-28T00:16:55;18.50;84.80
67820;DHT22;54618;52.018;5.576;2023-07-28T00:19:21;18.50;84.80
67820;DHT22;54618;52.018;5.576;2023-07-28T00:21:50;18.40;85.10
67820;DHT22;54618;52.018;5.576;2023-07-28T00:24:17;18.50;85.00
67820;DHT22;54618;52.018;5.576;2023-07-28T00:26:43;18.40;85.00
67820;DHT22;54618;52.018;5.576;2023-07-28T00:29:08;18.40;84.90
67820;DHT22;54618;52.018;5.576;2023-07-28T00:31:34;18.50;85.10
67820;DHT22;54618;52.018;5.576;2023-07-28T00:34:01;18.40;85.00
67820;DHT22;54618;52.018;5.576;2023-07-28T00:36:27;18.50;84.90
67820;DHT22;54618;52.018;5.576;2023-07-28T00:38:52;18.50;84.90
67820;DHT22;54618;52.018;5.576;2023-07-28T00:41:18;18.50;85.10
67820;DHT22;54618;52.018;5.576;2023-07-28T00:43:43;18.50;85.00
67820;DHT22;54618;52.018;5.576;2023-07-28T00:46:10;18.50;84.90
67820;DHT22;54618;52.018;5.576;2023-07-28T00:48:36;18.50;85.00
67820;DHT22;54618;52.018;5.576;2023-07-28T00:51:02;18.50;85.00
67820;DHT22;54618;52.018;5.576;2023-07-28T00:53:29;18.50;85.00
67820;DHT22;54618;52.018;5.576;2023-07-28T00:55:55;18.50;84.90
67820;DHT22;54618;52.018;5.576;2023-07-28T00:58:21;18.50;85.00
67820;DHT22;54618;52.018;5.576;2023-07-28T01:00:47;18.50;84.80
67820;DHT22;54618;52.018;5.576;2023-07-28T01:03:13;18.50;84.90
67820;DHT22;54618;52.018;5.576;2023-07-28T01:05:44;18.50;84.80
67820;DHT22;54618;52.018;5.576;2023-07-28T01:08:33;18.50;84.90
67820;DHT22;54618;52.018;5.576;2023-07-28T01:10:59;18.50;85.50
67820;DHT22;54618;52.018;5.576;2023-07-28T01:13:25;18.50;85.00
67820;DHT22;54618;52.018;5.576;2023-07-28T01:15:50;18.50;85.00
67820;DHT22;54618;52.018;5.576;2023-07-28T01:18:16;18.50;85.30
67820;DHT22;54618;52.018;5.576;2023-07-28T01:20:42;18.50;85.00
67820;DHT22;54618;52.018;5.576;2023-07-28T01:26:09;18.50;85.30
67820;DHT22;54618;52.018;5.576;2023-07-28T01:28:35;18.50;85.10
67820;DHT22;54618;52.018;5.576;2023-07-28T01:31:03;18.50;85.10
67820;DHT22;54618;52.018;5.576;2023-07-28T01:33:29;18.50;84.90
67820;DHT22;54618;52.018;5.576;2023-07-28T01:36:00;18.50;85.00
67820;DHT22;54618;52.018;5.576;2023-07-28T01:38:29;18.50;84.90
67820;DHT22;54618;52.018;5.576;2023-07-28T01:40:54;18.50;84.80
67820;DHT22;54618;52.018;5.576;2023-07-28T01:43:20;18.50;85.10
67820;DHT22;54618;52.018;5.576;2023-07-28T01:45:46;18.50;84.90
67820;DHT22;54618;52.018;5.576;2023-07-28T01:48:11;18.50;85.00
67820;DHT22;54618;52.018;5.576;2023-07-28T01:50:37;18.50;85.10
67820;DHT22;54618;52.018;5.576;2023-07-28T01:53:06;18.50;85.10
67820;DHT22;54618;52.018;5.576;2023-07-28T01:55:34;18.50;85.20
67820;DHT22;54618;52.018;5.576;2023-07-28T01:58:03;18.50;85.20
67820;DHT22;54618;52.018;5.576;2023-07-28T02:00:29;18.50;85.10
67820;DHT22;54618;52.018;5.576;2023-07-28T02:02:55;18.50;85.00
67820;DHT22;54618;52.018;5.576;2023-07-28T02:05:21;18.50;85.00
67820;DHT22;54618;52.018;5.576;2023-07-28T02:07:46;18.50;85.00
67820;DHT22;54618;52.018;5.576;2023-07-28T02:10:12;18.50;85.00
67820;DHT22;54618;52.018;5.576;2023-07-28T02:12:38;18.50;85.00
67820;DHT22;54618;52.018;5.576;2023-07-28T02:15:05;18.50;85.00
67820;DHT22;54618;52.018;5.576;2023-07-28T02:17:34;18.50;85.00
67820;DHT22;54618;52.018;5.576;2023-07-28T02:20:00;18.50;85.00
67820;DHT22;54618;52.018;5.576;2023-07-28T02:22:29;18.50;84.90
67820;DHT22;54618;52.018;5.576;2023-07-28T02:24:54;18.50;84.90
67820;DHT22;54618;52.018;5.576;2023-07-28T02:27:20;18.50;85.00
67820;DHT22;54618;52.018;5.576;2023-07-28T02:29:45;18.50;84.90
67820;DHT22;54618;52.018;5.576;2023-07-28T02:32:11;18.50;85.00
67820;DHT22;54618;52.018;5.576;2023-07-28T02:34:36;18.50;85.00
67820;DHT22;54618;52.018;5.576;2023-07-28T02:37:02;18.50;85.00
67820;DHT22;54618;52.018;5.576;2023-07-28T02:39:28;18.50;85.10
67820;DHT22;54618;52.018;5.576;2023-07-28T02:41:54;18.50;85.00
67820;DHT22;54618;52.018;5.576;2023-07-28T02:44:19;18.50;85.10
67820;DHT22;54618;52.018;5.576;2023-07-28T02:46:45;18.50;85.20
67820;DHT22;54618;52.018;5.576;2023-07-28T02:49:10;18.50;85.10
67820;DHT22;54618;52.018;5.576;2023-07-28T02:51:36;18.50;85.10
67820;DHT22;54618;52.018;5.576;2023-07-28T02:54:02;18.50;85.20
67820;DHT22;54618;52.018;5.576;2023-07-28T02:56:28;18.50;85.10
67820;DHT22;54618;52.018;5.576;2023-07-28T02:58:54;18.50;85.30
67820;DHT22;54618;52.018;5.576;2023-07-28T03:01:19;18.50;85.20
67820;DHT22;54618;52.018;5.576;2023-07-28T03:03:45;18.50;85.10
67820;DHT22;54618;52.018;5.576;2023-07-28T03:06:12;18.50;85.10
67820;DHT22;54618;52.018;5.576;2023-07-28T03:08:38;18.50;85.30
67820;DHT22;54618;52.018;5.576;2023-07-28T03:11:03;18.50;85.10
67820;DHT22;54618;52.018;5.576;2023-07-28T03:13:29;18.60;85.20
67820;DHT22;54618;52.018;5.576;2023-07-28T03:15:55;18.50;85.30
67820;DHT22;54618;52.018;5.576;2023-07-28T03:18:20;18.50;85.10
67820;DHT22;54618;52.018;5.576;2023-07-28T03:20:46;18.50;85.20
67820;DHT22;54618;52.018;5.576;2023-07-28T03:23:12;18.50;85.20
67820;DHT22;54618;52.018;5.576;2023-07-28T03:25:37;18.50;85.20
67820;DHT22;54618;52.018;5.576;2023-07-28T03:28:03;18.50;85.20
67820;DHT22;54618;52.018;5.576;2023-07-28T03:30:29;18.50;85.30
67820;DHT22;54618;52.018;5.576;2023-07-28T03:32:54;18.50;85.20
67820;DHT22;54618;52.018;5.576;2023-07-28T03:35:20;18.60;85.30
67820;DHT22;54618;52.018;5.576;2023-07-28T03:37:45;18.60;85.50
67820;DHT22;54618;52.018;5.576;2023-07-28T03:40:11;18.60;85.50
67820;DHT22;54618;52.018;5.576;2023-07-28T03:42:37;18.60;85.40
67820;DHT22;54618;52.018;5.576;2023-07-28T03:45:02;18.50;85.30
67820;DHT22;54618;52.018;5.576;2023-07-28T03:47:28;18.60;85.60
67820;DHT22;54618;52.018;5.576;2023-07-28T03:49:54;18.50;85.40
67820;DHT22;54618;52.018;5.576;2023-07-28T03:52:19;18.50;85.40
67820;DHT22;54618;52.018;5.576;2023-07-28T03:54:45;18.50;85.50
67820;DHT22;54618;52.018;5.576;2023-07-28T03:57:10;18.60;85.60
67820;DHT22;54618;52.018;5.576;2023-07-28T03:59:36;18.60;85.60
67820;DHT22;54618;52.018;5.576;2023-07-28T04:02:04;18.60;85.50
67820;DHT22;54618;52.018;5.576;2023-07-28T04:04:33;18.60;85.60
67820;DHT22;54618;52.018;5.576;2023-07-28T04:06:58;18.60;85.60
67820;DHT22;54618;52.018;5.576;2023-07-28T04:09:24;18.60;85.50
67820;DHT22;54618;52.018;5.576;2023-07-28T04:11:49;18.60;85.50
67820;DHT22;54618;52.018;5.576;2023-07-28T04:14:15;18.60;85.60
67820;DHT22;54618;52.018;5.576;2023-07-28T04:16:40;18.60;85.50
67820;DHT22;54618;52.018;5.576;2023-07-28T04:19:06;18.60;85.50
67820;DHT22;54618;52.018;5.576;2023-07-28T04:21:32;18.60;85.70
67820;DHT22;54618;52.018;5.576;2023-07-28T04:23:57;18.60;85.70
67820;DHT22;54618;52.018;5.576;2023-07-28T04:26:24;18.60;85.70
67820;DHT22;54618;52.018;5.576;2023-07-28T04:28:50;18.60;85.70
67820;DHT22;54618;52.018;5.576;2023-07-28T04:31:16;18.60;85.60
67820;DHT22;54618;52.018;5.576;2023-07-28T04:33:42;18.60;85.70
67820;DHT22;54618;52.018;5.576;2023-07-28T04:36:07;18.60;85.80
67820;DHT22;54618;52.018;5.576;2023-07-28T04:38:33;18.70;85.60
67820;DHT22;54618;52.018;5.576;2023-07-28T04:40:58;18.70;85.70
67820;DHT22;54618;52.018;5.576;2023-07-28T04:43:24;18.70;85.70
67820;DHT22;54618;52.018;5.576;2023-07-28T04:45:50;18.70;85.70
67820;DHT22;54618;52.018;5.576;2023-07-28T04:48:15;18.70;85.50
67820;DHT22;54618;52.018;5.576;2023-07-28T04:50:41;18.70;85.60
67820;DHT22;54618;52.018;5.576;2023-07-28T04:53:06;18.70;86.10
67820;DHT22;54618;52.018;5.576;2023-07-28T04:55:32;18.70;85.50
67820;DHT22;54618;52.018;5.576;2023-07-28T04:57:58;18.70;85.60
67820;DHT22;54618;52.018;5.576;2023-07-28T05:00:23;18.70;85.60
67820;DHT22;54618;52.018;5.576;2023-07-28T05:02:49;18.70;85.50
67820;DHT22;54618;52.018;5.576;2023-07-28T05:05:15;18.70;85.70
67820;DHT22;54618;52.018;5.576;2023-07-28T05:07:40;18.70;85.70
67820;DHT22;54618;52.018;5.576;2023-07-28T05:10:06;18.70;85.70
67820;DHT22;54618;52.018;5.576;2023-07-28T05:12:35;18.70;85.80
67820;DHT22;54618;52.018;5.576;2023-07-28T05:15:04;18.70;85.70
67820;DHT22;54618;52.018;5.576;2023-07-28T05:17:30;18.70;85.80
67820;DHT22;54618;52.018;5.576;2023-07-28T05:19:55;18.80;85.80
67820;DHT22;54618;52.018;5.576;2023-07-28T05:22:21;18.80;86.00
67820;DHT22;54618;52.018;5.576;2023-07-28T05:24:46;18.80;85.80
67820;DHT22;54618;52.018;5.576;2023-07-28T05:27:12;18.80;86.00
67820;DHT22;54618;52.018;5.576;2023-07-28T05:29:38;18.80;85.80
67820;DHT22;54618;52.018;5.576;2023-07-28T05:32:04;18.80;85.70
67820;DHT22;54618;52.018;5.576;2023-07-28T05:34:30;18.80;85.70
67820;DHT22;54618;52.018;5.576;2023-07-28T05:36:57;18.80;85.70
67820;DHT22;54618;52.018;5.576;2023-07-28T05:39:22;18.80;85.80
67820;DHT22;54618;52.018;5.576;2023-07-28T05:41:48;18.90;85.80
67820;DHT22;54618;52.018;5.576;2023-07-28T05:44:14;18.90;85.90
67820;DHT22;54618;52.018;5.576;2023-07-28T05:46:39;18.90;85.70
67820;DHT22;54618;52.018;5.576;2023-07-28T05:49:05;18.90;85.60
67820;DHT22;54618;52.018;5.576;2023-07-28T05:51:33;19.00;85.60
67820;DHT22;54618;52.018;5.576;2023-07-28T05:54:00;19.00;85.60
67820;DHT22;54618;52.018;5.576;2023-07-28T05:56:25;19.00;85.60
67820;DHT22;54618;52.018;5.576;2023-07-28T05:58:51;19.10;85.50
67820;DHT22;54618;52.018;5.576;2023-07-28T06:01:17;19.10;85.40
67820;DHT22;54618;52.018;5.576;2023-07-28T06:03:43;19.20;85.40
67820;DHT22;54618;52.018;5.576;2023-07-28T06:06:08;19.20;85.30
67820;DHT22;54618;52.018;5.576;2023-07-28T06:08:34;19.30;85.40
67820;DHT22;54618;52.018;5.576;2023-07-28T06:11:03;19.30;85.40
67820;DHT22;54618;52.018;5.576;2023-07-28T06:13:29;19.30;85.40
67820;DHT22;54618;52.018;5.576;2023-07-28T06:15:54;19.30;85.30
67820;DHT22;54618;52.018;5.576;2023-07-28T06:18:21;19.30;85.40
67820;DHT22;54618;52.018;5.576;2023-07-28T06:20:47;19.30;85.40
67820;DHT22;54618;52.018;5.576;2023-07-28T06:23:13;19.30;85.40
67820;DHT22;54618;52.018;5.576;2023-07-28T06:25:38;19.40;85.50
67820;DHT22;54618;52.018;5.576;2023-07-28T06:28:09;19.40;85.40
67820;DHT22;54618;52.018;5.576;2023-07-28T06:30:35;19.40;85.40
67820;DHT22;54618;52.018;5.576;2023-07-28T06:33:06;19.40;85.40
67820;DHT22;54618;52.018;5.576;2023-07-28T06:35:35;19.40;85.50
67820;DHT22;54618;52.018;5.576;2023-07-28T06:38:04;19.40;85.60
67820;DHT22;54618;52.018;5.576;2023-07-28T06:40:30;19.40;85.70
67820;DHT22;54618;52.018;5.576;2023-07-28T06:42:56;19.40;85.60
67820;DHT22;54618;52.018;5.576;2023-07-28T06:45:21;19.40;85.60
67820;DHT22;54618;52.018;5.576;2023-07-28T06:47:47;19.50;85.60
67820;DHT22;54618;52.018;5.576;2023-07-28T06:50:13;19.50;85.50
67820;DHT22;54618;52.018;5.576;2023-07-28T06:52:39;19.50;85.70
67820;DHT22;54618;52.018;5.576;2023-07-28T06:55:04;19.50;85.60
67820;DHT22;54618;52.018;5.576;2023-07-28T06:57:30;19.50;85.50
67820;DHT22;54618;52.018;5.576;2023-07-28T06:59:57;19.50;85.40
67820;DHT22;54618;52.018;5.576;2023-07-28T07:02:23;19.60;85.30
67820;DHT22;54618;52.018;5.576;2023-07-28T07:04:48;19.60;85.30
67820;DHT22;54618;52.018;5.576;2023-07-28T07:07:14;19.70;85.30
67820;DHT22;54618;52.018;5.576;2023-07-28T07:09:40;19.80;85.20
67820;DHT22;54618;52.018;5.576;2023-07-28T07:12:10;19.80;85.20
67820;DHT22;54618;52.018;5.576;2023-07-28T07:14:36;19.80;85.20
67820;DHT22;54618;52.018;5.576;2023-07-28T07:17:05;19.80;85.00
67820;DHT22;54618;52.018;5.576;2023-07-28T07:19:32;19.80;85.00
67820;DHT22;54618;52.018;5.576;2023-07-28T07:21:58;19.80;85.10
67820;DHT22;54618;52.018;5.576;2023-07-28T07:24:23;19.80;85.10
67820;DHT22;54618;52.018;5.576;2023-07-28T07:26:49;19.80;85.20
67820;DHT22;54618;52.018;5.576;2023-07-28T07:29:16;19.90;85.20
67820;DHT22;54618;52.018;5.576;2023-07-28T07:31:41;19.90;85.10
67820;DHT22;54618;52.018;5.576;2023-07-28T07:34:07;20.00;85.00
67820;DHT22;54618;52.018;5.576;2023-07-28T07:36:35;20.10;85.00
67820;DHT22;54618;52.018;5.576;2023-07-28T07:39:04;20.20;84.90
67820;DHT22;54618;52.018;5.576;2023-07-28T07:41:30;20.20;84.60
67820;DHT22;54618;52.018;5.576;2023-07-28T07:43:56;20.30;84.50
67820;DHT22;54618;52.018;5.576;2023-07-28T07:46:22;20.30;84.40
67820;DHT22;54618;52.018;5.576;2023-07-28T07:48:48;20.30;84.50
67820;DHT22;54618;52.018;5.576;2023-07-28T07:51:14;20.20;84.70
67820;DHT22;54618;52.018;5.576;2023-07-28T07:53:40;20.30;84.80
67820;DHT22;54618;52.018;5.576;2023-07-28T07:56:07;20.30;84.70
67820;DHT22;54618;52.018;5.576;2023-07-28T07:58:35;20.30;84.70
67820;DHT22;54618;52.018;5.576;2023-07-28T08:01:04;20.30;84.60
67820;DHT22;54618;52.018;5.576;2023-07-28T08:03:29;20.20;84.70
67820;DHT22;54618;52.018;5.576;2023-07-28T08:05:55;20.20;84.80
67820;DHT22;54618;52.018;5.576;2023-07-28T08:08:22;20.30;84.90
67820;DHT22;54618;52.018;5.576;2023-07-28T08:10:48;20.30;84.80
67820;DHT22;54618;52.018;5.576;2023-07-28T08:13:14;20.20;84.80
67820;DHT22;54618;52.018;5.576;2023-07-28T08:15:42;20.20;85.00
67820;DHT22;54618;52.018;5.576;2023-07-28T08:18:08;20.30;85.00
67820;DHT22;54618;52.018;5.576;2023-07-28T08:20:33;20.30;84.70
67820;DHT22;54618;52.018;5.576;2023-07-28T08:22:59;20.50;84.70
67820;DHT22;54618;52.018;5.576;2023-07-28T08:25:25;20.50;84.50
67820;DHT22;54618;52.018;5.576;2023-07-28T08:27:50;20.60;84.20
67820;DHT22;54618;52.018;5.576;2023-07-28T08:30:16;20.70;84.30
67820;DHT22;54618;52.018;5.576;2023-07-28T08:32:42;20.70;84.10
67820;DHT22;54618;52.018;5.576;2023-07-28T08:35:09;20.70;84.10
67820;DHT22;54618;52.018;5.576;2023-07-28T08:37:35;20.80;84.00
67820;DHT22;54618;52.018;5.576;2023-07-28T08:40:01;20.90;84.00
67820;DHT22;54618;52.018;5.576;2023-07-28T08:42:38;21.00;83.80
67820;DHT22;54618;52.018;5.576;2023-07-28T08:45:04;21.10;83.70
67820;DHT22;54618;52.018;5.576;2023-07-28T08:47:31;21.10;83.70
67820;DHT22;54618;52.018;5.576;2023-07-28T08:49:59;21.30;83.60
67820;DHT22;54618;52.018;5.576;2023-07-28T08:52:25;21.40;83.10
67820;DHT22;54618;52.018;5.576;2023-07-28T08:54:51;21.50;82.70
67820;DHT22;54618;52.018;5.576;2023-07-28T08:57:16;21.60;82.70
67820;DHT22;54618;52.018;5.576;2023-07-28T08:59:42;21.70;82.70
67820;DHT22;54618;52.018;5.576;2023-07-28T09:02:15;21.80;82.60
67820;DHT22;54618;52.018;5.576;2023-07-28T09:04:42;21.80;82.40
67820;DHT22;54618;52.018;5.576;2023-07-28T09:07:07;21.90;82.40
67820;DHT22;54618;52.018;5.576;2023-07-28T09:09:33;22.10;82.30
67820;DHT22;54618;52.018;5.576;2023-07-28T09:12:00;22.20;82.20
67820;DHT22;54618;52.018;5.576;2023-07-28T09:14:26;22.40;82.10
67820;DHT22;54618;52.018;5.576;2023-07-28T09:16:52;22.60;81.60
67820;DHT22;54618;52.018;5.576;2023-07-28T09:19:20;22.70;81.30
67820;DHT22;54618;52.018;5.576;2023-07-28T09:21:57;22.80;81.00
67820;DHT22;54618;52.018;5.576;2023-07-28T09:24:33;23.00;80.00
67820;DHT22;54618;52.018;5.576;2023-07-28T09:27:00;23.00;81.00
67820;DHT22;54618;52.018;5.576;2023-07-28T09:29:26;23.10;81.40
67820;DHT22;54618;52.018;5.576;2023-07-28T09:32:03;23.20;81.00
67820;DHT22;54618;52.018;5.576;2023-07-28T09:34:29;23.30;80.00
67820;DHT22;54618;52.018;5.576;2023-07-28T09:36:59;23.40;80.50
67820;DHT22;54618;52.018;5.576;2023-07-28T09:39:26;23.40;80.70
67820;DHT22;54618;52.018;5.576;2023-07-28T09:41:51;23.60;80.70
67820;DHT22;54618;52.018;5.576;2023-07-28T09:44:17;23.90;80.50
67820;DHT22;54618;52.018;5.576;2023-07-28T09:46:54;24.20;80.40
67820;DHT22;54618;52.018;5.576;2023-07-28T09:49:35;24.50;78.40
67820;DHT22;54618;52.018;5.576;2023-07-28T09:52:04;24.70;78.60
67820;DHT22;54618;52.018;5.576;2023-07-28T09:54:34;24.80;79.80
67820;DHT22;54618;52.018;5.576;2023-07-28T09:57:04;24.90;79.30
67820;DHT22;54618;52.018;5.576;2023-07-28T09:59:37;25.20;79.50
67820;DHT22;54618;52.018;5.576;2023-07-28T10:02:03;25.30;78.80
67820;DHT22;54618;52.018;5.576;2023-07-28T10:04:32;25.30;72.60
67820;DHT22;54618;52.018;5.576;2023-07-28T10:06:58;25.30;78.80
67820;DHT22;54618;52.018;5.576;2023-07-28T10:09:25;25.30;78.70
67820;DHT22;54618;52.018;5.576;2023-07-28T10:11:52;25.20;79.30
67820;DHT22;54618;52.018;5.576;2023-07-28T10:14:28;25.20;78.90
67820;DHT22;54618;52.018;5.576;2023-07-28T10:16:54;25.20;75.10
67820;DHT22;54618;52.018;5.576;2023-07-28T10:19:20;25.20;78.60
67820;DHT22;54618;52.018;5.576;2023-07-28T10:21:46;25.10;78.90
67820;DHT22;54618;52.018;5.576;2023-07-28T10:24:12;25.10;78.70
67820;DHT22;54618;52.018;5.576;2023-07-28T10:26:41;25.30;78.70
67820;DHT22;54618;52.018;5.576;2023-07-28T10:29:16;25.40;78.60
67820;DHT22;54618;52.018;5.576;2023-07-28T10:31:53;25.40;76.70
67820;DHT22;54618;52.018;5.576;2023-07-28T10:34:19;25.50;77.00
67820;DHT22;54618;52.018;5.576;2023-07-28T10:36:47;25.50;77.30
67820;DHT22;54618;52.018;5.576;2023-07-28T10:39:21;25.50;77.40
67820;DHT22;54618;52.018;5.576;2023-07-28T10:42:07;25.60;77.60
67820;DHT22;54618;52.018;5.576;2023-07-28T10:44:34;25.70;73.00
67820;DHT22;54618;52.018;5.576;2023-07-28T10:47:00;25.60;77.10
67820;DHT22;54618;52.018;5.576;2023-07-28T10:49:27;25.70;77.70
67820;DHT22;54618;52.018;5.576;2023-07-28T10:51:53;25.80;77.00
67820;DHT22;54618;52.018;5.576;2023-07-28T10:54:18;25.80;76.80
67820;DHT22;54618;52.018;5.576;2023-07-28T10:56:46;25.90;77.00
67820;DHT22;54618;52.018;5.576;2023-07-28T10:59:12;26.00;76.40
67820;DHT22;54618;52.018;5.576;2023-07-28T11:01:39;26.10;76.70
67820;DHT22;54618;52.018;5.576;2023-07-28T11:04:11;26.30;76.60
67820;DHT22;54618;52.018;5.576;2023-07-28T11:06:49;26.50;74.60
67820;DHT22;54618;52.018;5.576;2023-07-28T11:09:21;26.30;73.90
67820;DHT22;54618;52.018;5.576;2023-07-28T11:11:47;26.40;76.20
67820;DHT22;54618;52.018;5.576;2023-07-28T11:14:15;26.40;76.50
67820;DHT22;54618;52.018;5.576;2023-07-28T11:16:42;26.70;76.20
67820;DHT22;54618;52.018;5.576;2023-07-28T11:19:12;27.00;75.50
67820;DHT22;54618;52.018;5.576;2023-07-28T11:21:40;27.10;74.80
67820;DHT22;54618;52.018;5.576;2023-07-28T11:24:10;27.20;75.10
67820;DHT22;54618;52.018;5.576;2023-07-28T11:26:37;27.20;74.60
67820;DHT22;54618;52.018;5.576;2023-07-28T11:29:04;27.10;75.20
67820;DHT22;54618;52.018;5.576;2023-07-28T11:31:30;27.10;74.90
67820;DHT22;54618;52.018;5.576;2023-07-28T11:33:55;27.10;75.40
67820;DHT22;54618;52.018;5.576;2023-07-28T11:36:25;27.20;74.70
67820;DHT22;54618;52.018;5.576;2023-07-28T11:38:52;27.20;72.40
67820;DHT22;54618;52.018;5.576;2023-07-28T11:41:19;27.20;73.90
67820;DHT22;54618;52.018;5.576;2023-07-28T11:43:45;27.20;73.80
67820;DHT22;54618;52.018;5.576;2023-07-28T11:46:39;27.20;73.70
67820;DHT22;54618;52.018;5.576;2023-07-28T11:49:14;27.10;69.30
67820;DHT22;54618;52.018;5.576;2023-07-28T11:51:45;27.00;72.20
67820;DHT22;54618;52.018;5.576;2023-07-28T11:54:15;27.10;72.90
67820;DHT22;54618;52.018;5.576;2023-07-28T11:56:46;27.20;72.60
67820;DHT22;54618;52.018;5.576;2023-07-28T11:59:14;27.40;72.50
67820;DHT22;54618;52.018;5.576;2023-07-28T12:01:56;27.60;72.20
67820;DHT22;54618;52.018;5.576;2023-07-28T12:04:23;27.80;70.00
67820;DHT22;54618;52.018;5.576;2023-07-28T12:12:14;28.00;69.50
67820;DHT22;54618;52.018;5.576;2023-07-28T12:14:40;28.00;70.30
67820;DHT22;54618;52.018;5.576;2023-07-28T12:17:16;27.90;70.50
67820;DHT22;54618;52.018;5.576;2023-07-28T12:20:06;27.90;68.00
67820;DHT22;54618;52.018;5.576;2023-07-28T12:22:41;27.90;63.60
67820;DHT22;54618;52.018;5.576;2023-07-28T12:25:07;27.90;70.20
67820;DHT22;54618;52.018;5.576;2023-07-28T12:27:36;27.80;70.40
67820;DHT22;54618;52.018;5.576;2023-07-28T12:30:05;27.70;70.00
67820;DHT22;54618;52.018;5.576;2023-07-28T12:32:34;27.80;70.50
67820;DHT22;54618;52.018;5.576;2023-07-28T12:34:59;27.90;69.40
67820;DHT22;54618;52.018;5.576;2023-07-28T12:37:25;28.00;70.00
67820;DHT22;54618;52.018;5.576;2023-07-28T12:39:51;28.10;69.40
67820;DHT22;54618;52.018;5.576;2023-07-28T12:42:16;28.10;68.40
67820;DHT22;54618;52.018;5.576;2023-07-28T12:44:42;28.00;69.10
67820;DHT22;54618;52.018;5.576;2023-07-28T12:47:08;28.00;69.40
67820;DHT22;54618;52.018;5.576;2023-07-28T12:49:34;27.90;69.10
67820;DHT22;54618;52.018;5.576;2023-07-28T12:52:05;27.90;70.00
67820;DHT22;54618;52.018;5.576;2023-07-28T12:54:34;28.00;66.60
67820;DHT22;54618;52.018;5.576;2023-07-28T12:57:00;27.90;68.60
67820;DHT22;54618;52.018;5.576;2023-07-28T12:59:26;27.80;69.20
67820;DHT22;54618;52.018;5.576;2023-07-28T13:01:53;27.90;69.00
67820;DHT22;54618;52.018;5.576;2023-07-28T13:04:19;27.90;69.10
67820;DHT22;54618;52.018;5.576;2023-07-28T13:06:44;27.90;69.00
67820;DHT22;54618;52.018;5.576;2023-07-28T13:09:10;28.00;68.70
67820;DHT22;54618;52.018;5.576;2023-07-28T13:11:35;27.90;68.60
67820;DHT22;54618;52.018;5.576;2023-07-28T13:14:04;28.00;68.40
67820;DHT22;54618;52.018;5.576;2023-07-28T13:16:30;28.00;68.40
67820;DHT22;54618;52.018;5.576;2023-07-28T13:18:56;27.80;67.80
67820;DHT22;54618;52.018;5.576;2023-07-28T13:21:22;27.70;68.80
67820;DHT22;54618;52.018;5.576;2023-07-28T13:23:48;27.80;67.90
67820;DHT22;54618;52.018;5.576;2023-07-28T13:26:14;27.90;67.50
67820;DHT22;54618;52.018;5.576;2023-07-28T13:28:39;28.00;67.70
67820;DHT22;54618;52.018;5.576;2023-07-28T13:31:08;28.10;67.30
67820;DHT22;54618;52.018;5.576;2023-07-28T13:33:34;28.20;67.70
67820;DHT22;54618;52.018;5.576;2023-07-28T13:35:59;28.30;67.00
67820;DHT22;54618;52.018;5.576;2023-07-28T13:38:25;28.30;66.80
67820;DHT22;54618;52.018;5.576;2023-07-28T13:40:50;28.30;66.00
67820;DHT22;54618;52.018;5.576;2023-07-28T13:43:16;28.30;65.50
67820;DHT22;54618;52.018;5.576;2023-07-28T13:45:41;28.00;65.00
67820;DHT22;54618;52.018;5.576;2023-07-28T13:48:07;27.70;65.10
67820;DHT22;54618;52.018;5.576;2023-07-28T13:50:35;27.50;65.60
67820;DHT22;54618;52.018;5.576;2023-07-28T13:53:01;27.30;64.30
67820;DHT22;54618;52.018;5.576;2023-07-28T13:55:27;27.10;64.90
67820;DHT22;54618;52.018;5.576;2023-07-28T13:57:53;27.10;64.20
67820;DHT22;54618;52.018;5.576;2023-07-28T14:00:18;27.10;64.80
67820;DHT22;54618;52.018;5.576;2023-07-28T14:02:44;27.20;64.80
67820;DHT22;54618;52.018;5.576;2023-07-28T14:05:09;27.20;64.40
67820;DHT22;54618;52.018;5.576;2023-07-28T14:07:35;27.10;64.50
67820;DHT22;54618;52.018;5.576;2023-07-28T14:10:02;27.20;64.60
67820;DHT22;54618;52.018;5.576;2023-07-28T14:12:28;27.20;64.70
67820;DHT22;54618;52.018;5.576;2023-07-28T14:14:54;27.20;63.90
67820;DHT22;54618;52.018;5.576;2023-07-28T14:17:19;27.20;63.50
67820;DHT22;54618;52.018;5.576;2023-07-28T14:19:45;27.30;63.50
67820;DHT22;54618;52.018;5.576;2023-07-28T14:22:11;27.30;63.70
67820;DHT22;54618;52.018;5.576;2023-07-28T14:24:37;27.50;63.50
67820;DHT22;54618;52.018;5.576;2023-07-28T14:27:04;27.30;63.10
67820;DHT22;54618;52.018;5.576;2023-07-28T14:29:29;27.40;63.00
67820;DHT22;54618;52.018;5.576;2023-07-28T14:31:55;27.30;62.80
67820;DHT22;54618;52.018;5.576;2023-07-28T14:34:20;27.00;62.10
67820;DHT22;54618;52.018;5.576;2023-07-28T14:36:46;27.10;62.50
67820;DHT22;54618;52.018;5.576;2023-07-28T14:39:11;26.90;61.80
67820;DHT22;54618;52.018;5.576;2023-07-28T14:41:37;26.70;62.20
67820;DHT22;54618;52.018;5.576;2023-07-28T14:44:03;26.30;61.30
67820;DHT22;54618;52.018;5.576;2023-07-28T14:46:29;26.20;62.40
67820;DHT22;54618;52.018;5.576;2023-07-28T14:48:54;26.30;62.80
67820;DHT22;54618;52.018;5.576;2023-07-28T14:51:21;26.50;63.30
67820;DHT22;54618;52.018;5.576;2023-07-28T14:53:47;26.50;63.20
67820;DHT22;54618;52.018;5.576;2023-07-28T14:56:13;26.50;62.60
67820;DHT22;54618;52.018;5.576;2023-07-28T14:58:40;26.50;63.50
67820;DHT22;54618;52.018;5.576;2023-07-28T15:01:10;26.50;62.90
67820;DHT22;54618;52.018;5.576;2023-07-28T15:03:36;26.50;62.50
67820;DHT22;54618;52.018;5.576;2023-07-28T15:06:02;26.60;61.80
67820;DHT22;54618;52.018;5.576;2023-07-28T15:08:28;26.50;61.90
67820;DHT22;54618;52.018;5.576;2023-07-28T15:10:55;26.50;62.20
67820;DHT22;54618;52.018;5.576;2023-07-28T15:13:21;26.50;62.20
67820;DHT22;54618;52.018;5.576;2023-07-28T15:15:47;26.60;62.40
67820;DHT22;54618;52.018;5.576;2023-07-28T15:18:13;26.50;61.60
67820;DHT22;54618;52.018;5.576;2023-07-28T15:20:40;26.50;62.30
67820;DHT22;54618;52.018;5.576;2023-07-28T15:23:05;26.50;62.30
67820;DHT22;54618;52.018;5.576;2023-07-28T15:25:31;26.60;62.70
67820;DHT22;54618;52.018;5.576;2023-07-28T15:27:57;26.60;62.30
67820;DHT22;54618;52.018;5.576;2023-07-28T15:30:22;26.60;62.30
67820;DHT22;54618;52.018;5.576;2023-07-28T15:32:48;26.50;61.80
67820;DHT22;54618;52.018;5.576;2023-07-28T15:35:14;26.40;62.60
67820;DHT22;54618;52.018;5.576;2023-07-28T15:37:39;26.50;62.70